Aviation Digital Data Service (ADDS)

Output produced by METARs form (0351 UTC 05 June 2020)
found at http://www.aviationweather.gov/metar/data/
 
METAR text: VEAT 050330Z 25003KT 6000 FEW020 SCT100 30/26 Q1007 NOSIG
Conditions at: VEAT (AGARTALA , IN) observed 0330 UTC 05 June 2020
Temperature: 30.0°C (86°F)
Dewpoint: 26.0°C (79°F) [RH = 79%]
Pressure (altimeter): 29.73 inches Hg (1007.0 mb)
Winds: from the WSW (250 degrees) at 3 MPH (3 knots; 1.5 m/s)
Visibility: 4 miles ( 6 km)
Ceiling: at least 12,000 feet AGL
Clouds: few clouds at 2000 feet AGL
scattered clouds at 10000 feet AGL
Weather: no significant weather observed at this time

METAR text: VEAT 050300Z 22003KT 6000 FEW020 SCT100 29/26 Q1007 NOSIG
Conditions at: VEAT (AGARTALA , IN) observed 0300 UTC 05 June 2020
Temperature: 29.0°C (84°F)
Dewpoint: 26.0°C (79°F) [RH = 84%]
Pressure (altimeter): 29.73 inches Hg (1007.0 mb)
Winds: from the SW (220 degrees) at 3 MPH (3 knots; 1.5 m/s)
Visibility: 4 miles ( 6 km)
Ceiling: at least 12,000 feet AGL
Clouds: few clouds at 2000 feet AGL
scattered clouds at 10000 feet AGL
Weather: no significant weather observed at this time

METAR text: VEAT 050230Z 00000KT 6000 FEW020 BKN100 28/25 Q1007 NOSIG
Conditions at: VEAT (AGARTALA , IN) observed 0230 UTC 05 June 2020
Temperature: 28.0°C (82°F)
Dewpoint: 25.0°C (77°F) [RH = 84%]
Pressure (altimeter): 29.73 inches Hg (1007.0 mb)
Winds: calm
Visibility: 4 miles ( 6 km)
Ceiling: 10000 feet AGL
Clouds: few clouds at 2000 feet AGL
broken clouds at 10000 feet AGL
Weather: no significant weather observed at this time

METAR text: VEAT 050200Z 00000KT 5000 BR FEW020 SCT100 27/25 Q1007 NOSIG
Conditions at: VEAT (AGARTALA , IN) observed 0200 UTC 05 June 2020
Temperature: 27.0°C (81°F)
Dewpoint: 25.0°C (77°F) [RH = 89%]
Pressure (altimeter): 29.73 inches Hg (1007.0 mb)
Winds: calm
Visibility: 3 miles ( 5 km)
Ceiling: at least 12,000 feet AGL
Clouds: few clouds at 2000 feet AGL
scattered clouds at 10000 feet AGL
Weather: BR  (mist)

METAR text: VEAT 050100Z 00000KT 5000 BR FEW020 SCT100 BKN200 24/24 Q1006 NOSIG
Conditions at: VEAT (AGARTALA , IN) observed 0100 UTC 05 June 2020
Temperature: 24.0°C (75°F)
Dewpoint: 24.0°C (75°F) [RH = 100%]
Pressure (altimeter): 29.70 inches Hg (1006.0 mb)
Winds: calm
Visibility: 3 miles ( 5 km)
Ceiling: 20000 feet AGL
Clouds: few clouds at 2000 feet AGL
scattered clouds at 10000 feet AGL
broken clouds at 20000 feet AGL
Weather: BR  (mist)

METAR text: VEAT 050000Z 00000KT 5000 BR SCT018 BKN100 24/24 Q1006 NOSIG
Conditions at: VEAT (AGARTALA , IN) observed 0000 UTC 05 June 2020
Temperature: 24.0°C (75°F)
Dewpoint: 24.0°C (75°F) [RH = 100%]
Pressure (altimeter): 29.70 inches Hg (1006.0 mb)
Winds: calm
Visibility: 3 miles ( 5 km)
Ceiling: 10000 feet AGL
Clouds: scattered clouds at 1800 feet AGL
broken clouds at 10000 feet AGL
Weather: BR  (mist)

METAR text: VEAT 041400Z 00000KT 4000 -RA FEW010 SCT018 OVC090 26/25 Q1006 NOSIG
Conditions at: VEAT (AGARTALA , IN) observed 1400 UTC 04 June 2020
Temperature: 26.0°C (79°F)
Dewpoint: 25.0°C (77°F) [RH = 94%]
Pressure (altimeter): 29.70 inches Hg (1006.0 mb)
Winds: calm
Visibility: 2.49 miles (4.01 km)
Ceiling: 9000 feet AGL
Clouds: few clouds at 1000 feet AGL
scattered clouds at 1800 feet AGL
overcast cloud deck at 9000 feet AGL
Weather: -RA  (light rain)

METAR text: VEAT 041330Z 04002KT 4000 -RA FEW010 SCT018 OVC090 26/25 Q1006 NOSIG
Conditions at: VEAT (AGARTALA , IN) observed 1330 UTC 04 June 2020
Temperature: 26.0°C (79°F)
Dewpoint: 25.0°C (77°F) [RH = 94%]
Pressure (altimeter): 29.70 inches Hg (1006.0 mb)
Winds: from the NE (40 degrees) at 2 MPH (2 knots; 1.0 m/s)
Visibility: 2.49 miles (4.01 km)
Ceiling: 9000 feet AGL
Clouds: few clouds at 1000 feet AGL
scattered clouds at 1800 feet AGL
overcast cloud deck at 9000 feet AGL
Weather: -RA  (light rain)

METAR text: VEAT 041300Z 00000KT 4000 -RA FEW010 SCT018 FEW030CB OVC090 26/25 Q1006 NOSIG
Conditions at: VEAT (AGARTALA , IN) observed 1300 UTC 04 June 2020
Temperature: 26.0°C (79°F)
Dewpoint: 25.0°C (77°F) [RH = 94%]
Pressure (altimeter): 29.70 inches Hg (1006.0 mb)
Winds: calm
Visibility: 2.49 miles (4.01 km)
Ceiling: 9000 feet AGL
Clouds: few clouds at 1000 feet AGL
scattered clouds at 1800 feet AGL
few clouds at 3000 feet AGL
overcast cloud deck at 9000 feet AGL
Weather: -RA  (light rain)

METAR text: VEAT 041230Z 00000KT 4000 -TSRA FEW010 SCT018 FEW030CB OVC090 27/25 Q1006 NOSIG
Conditions at: VEAT (AGARTALA , IN) observed 1230 UTC 04 June 2020
Temperature: 27.0°C (81°F)
Dewpoint: 25.0°C (77°F) [RH = 89%]
Pressure (altimeter): 29.70 inches Hg (1006.0 mb)
Winds: calm
Visibility: 2.49 miles (4.01 km)
Ceiling: 9000 feet AGL
Clouds: few clouds at 1000 feet AGL
scattered clouds at 1800 feet AGL
few clouds at 3000 feet AGL
overcast cloud deck at 9000 feet AGL
Weather: -TSRA  (light rain associated with thunderstorm(s))

METAR text: VEAT 041200Z 00000KT 4000 -TSRA FEW010 SCT018 FEW030CB BKN100 27/25 Q1005 NOSIG
Conditions at: VEAT (AGARTALA , IN) observed 1200 UTC 04 June 2020
Temperature: 27.0°C (81°F)
Dewpoint: 25.0°C (77°F) [RH = 89%]
Pressure (altimeter): 29.68 inches Hg (1005.0 mb)
Winds: calm
Visibility: 2.49 miles (4.01 km)
Ceiling: 10000 feet AGL
Clouds: few clouds at 1000 feet AGL
scattered clouds at 1800 feet AGL
few clouds at 3000 feet AGL
broken clouds at 10000 feet AGL
Weather: -TSRA  (light rain associated with thunderstorm(s))

METAR text: VEAT 041130Z 00000KT 4000 -TSRA SCT018 FEW030CB BKN100 27/26 Q1005 NOSIG
Conditions at: VEAT (AGARTALA , IN) observed 1130 UTC 04 June 2020
Temperature: 27.0°C (81°F)
Dewpoint: 26.0°C (79°F) [RH = 94%]
Pressure (altimeter): 29.68 inches Hg (1005.0 mb)
Winds: calm
Visibility: 2.49 miles (4.01 km)
Ceiling: 10000 feet AGL
Clouds: scattered clouds at 1800 feet AGL
few clouds at 3000 feet AGL
broken clouds at 10000 feet AGL
Weather: -TSRA  (light rain associated with thunderstorm(s))

METAR text: VEAT 041100Z 00000KT 4000 -RA SCT018 FEW030CB BKN100 27/26 Q1004 NOSIG
Conditions at: VEAT (AGARTALA , IN) observed 1100 UTC 04 June 2020
Temperature: 27.0°C (81°F)
Dewpoint: 26.0°C (79°F) [RH = 94%]
Pressure (altimeter): 29.65 inches Hg (1004.0 mb)
Winds: calm
Visibility: 2.49 miles (4.01 km)
Ceiling: 10000 feet AGL
Clouds: scattered clouds at 1800 feet AGL
few clouds at 3000 feet AGL
broken clouds at 10000 feet AGL
Weather: -RA  (light rain)

METAR text: VEAT 041030Z 17003KT 5000 BR SCT018 FEW030CB BKN100 28/26 Q1004 NOSIG
Conditions at: VEAT (AGARTALA , IN) observed 1030 UTC 04 June 2020
Temperature: 28.0°C (82°F)
Dewpoint: 26.0°C (79°F) [RH = 89%]
Pressure (altimeter): 29.65 inches Hg (1004.0 mb)
Winds: from the S (170 degrees) at 3 MPH (3 knots; 1.5 m/s)
Visibility: 3 miles ( 5 km)
Ceiling: 10000 feet AGL
Clouds: scattered clouds at 1800 feet AGL
few clouds at 3000 feet AGL
broken clouds at 10000 feet AGL
Weather: BR  (mist)

METAR text: VEAT 041000Z 18003KT 5000 BR SCT018 FEW030CB BKN100 28/26 Q1004 NOSIG
Conditions at: VEAT (AGARTALA , IN) observed 1000 UTC 04 June 2020
Temperature: 28.0°C (82°F)
Dewpoint: 26.0°C (79°F) [RH = 89%]
Pressure (altimeter): 29.65 inches Hg (1004.0 mb)
Winds: from the S (180 degrees) at 3 MPH (3 knots; 1.5 m/s)
Visibility: 3 miles ( 5 km)
Ceiling: 10000 feet AGL
Clouds: scattered clouds at 1800 feet AGL
few clouds at 3000 feet AGL
broken clouds at 10000 feet AGL
Weather: BR  (mist)

METAR text: VEAT 040930Z 18003KT 5000 BR SCT018 BKN100 28/25 Q1005 NOSIG
Conditions at: VEAT (AGARTALA , IN) observed 0930 UTC 04 June 2020
Temperature: 28.0°C (82°F)
Dewpoint: 25.0°C (77°F) [RH = 84%]
Pressure (altimeter): 29.68 inches Hg (1005.0 mb)
Winds: from the S (180 degrees) at 3 MPH (3 knots; 1.5 m/s)
Visibility: 3 miles ( 5 km)
Ceiling: 10000 feet AGL
Clouds: scattered clouds at 1800 feet AGL
broken clouds at 10000 feet AGL
Weather: BR  (mist)

METAR text: VEAT 040900Z 17003KT 5000 BR SCT018 BKN100 28/25 Q1005 NOSIG
Conditions at: VEAT (AGARTALA , IN) observed 0900 UTC 04 June 2020
Temperature: 28.0°C (82°F)
Dewpoint: 25.0°C (77°F) [RH = 84%]
Pressure (altimeter): 29.68 inches Hg (1005.0 mb)
Winds: from the S (170 degrees) at 3 MPH (3 knots; 1.5 m/s)
Visibility: 3 miles ( 5 km)
Ceiling: 10000 feet AGL
Clouds: scattered clouds at 1800 feet AGL
broken clouds at 10000 feet AGL
Weather: BR  (mist)

METAR text: VEAT 040830Z 15004KT 5000 BR SCT018 FEW030CB BKN100 27/25 Q1005 NOSIG
Conditions at: VEAT (AGARTALA , IN) observed 0830 UTC 04 June 2020
Temperature: 27.0°C (81°F)
Dewpoint: 25.0°C (77°F) [RH = 89%]
Pressure (altimeter): 29.68 inches Hg (1005.0 mb)
Winds: from the SSE (150 degrees) at 5 MPH (4 knots; 2.1 m/s)
Visibility: 3 miles ( 5 km)
Ceiling: 10000 feet AGL
Clouds: scattered clouds at 1800 feet AGL
few clouds at 3000 feet AGL
broken clouds at 10000 feet AGL
Weather: BR  (mist)

METAR text: VEAT 040800Z 16003KT 4000 BR SCT018 BKN100 26/25 Q1006 BECMG 5000 BR
Conditions at: VEAT (AGARTALA , IN) observed 0800 UTC 04 June 2020
Temperature: 26.0°C (79°F)
Dewpoint: 25.0°C (77°F) [RH = 94%]
Pressure (altimeter): 29.70 inches Hg (1006.0 mb)
Winds: from the SSE (160 degrees) at 3 MPH (3 knots; 1.5 m/s)
Visibility: 2.49 miles (4.01 km)
Ceiling: 10000 feet AGL
Clouds: scattered clouds at 1800 feet AGL
broken clouds at 10000 feet AGL
Weather: BR  (mist)

METAR text: VEAT 040730Z 00000KT 4000 -RA FEW010 SCT018 FEW030CB BKN100 26/25 Q1006 NOSIG
Conditions at: VEAT (AGARTALA , IN) observed 0730 UTC 04 June 2020
Temperature: 26.0°C (79°F)
Dewpoint: 25.0°C (77°F) [RH = 94%]
Pressure (altimeter): 29.70 inches Hg (1006.0 mb)
Winds: calm
Visibility: 2.49 miles (4.01 km)
Ceiling: 10000 feet AGL
Clouds: few clouds at 1000 feet AGL
scattered clouds at 1800 feet AGL
few clouds at 3000 feet AGL
broken clouds at 10000 feet AGL
Weather: -RA  (light rain)

METAR text: VEAT 040700Z 00000KT 4000 -TSRA FEW010 SCT018 FEW030CB BKN100 26/25 Q1007 NOSIG
Conditions at: VEAT (AGARTALA , IN) observed 0700 UTC 04 June 2020
Temperature: 26.0°C (79°F)
Dewpoint: 25.0°C (77°F) [RH = 94%]
Pressure (altimeter): 29.73 inches Hg (1007.0 mb)
Winds: calm
Visibility: 2.49 miles (4.01 km)
Ceiling: 10000 feet AGL
Clouds: few clouds at 1000 feet AGL
scattered clouds at 1800 feet AGL
few clouds at 3000 feet AGL
broken clouds at 10000 feet AGL
Weather: -TSRA  (light rain associated with thunderstorm(s))

METAR text: VEAT 040630Z 00000KT 4000 -TSRA FEW010 SCT018 FEW030CB BKN100 26/24 Q1006 TEMPO 3000 -TSRA
Conditions at: VEAT (AGARTALA , IN) observed 0630 UTC 04 June 2020
Temperature: 26.0°C (79°F)
Dewpoint: 24.0°C (75°F) [RH = 89%]
Pressure (altimeter): 29.70 inches Hg (1006.0 mb)
Winds: calm
Visibility: 2.49 miles (4.01 km)
Ceiling: 10000 feet AGL
Clouds: few clouds at 1000 feet AGL
scattered clouds at 1800 feet AGL
few clouds at 3000 feet AGL
broken clouds at 10000 feet AGL
Weather: -TSRA  (light rain associated with thunderstorm(s))

METAR text: VEAT 040600Z 00000KT 4000 TS SCT018 FEW030CB BKN100 26/24 Q1006 NOSIG
Conditions at: VEAT (AGARTALA , IN) observed 0600 UTC 04 June 2020
Temperature: 26.0°C (79°F)
Dewpoint: 24.0°C (75°F) [RH = 89%]
Pressure (altimeter): 29.70 inches Hg (1006.0 mb)
Winds: calm
Visibility: 2.49 miles (4.01 km)
Ceiling: 10000 feet AGL
Clouds: scattered clouds at 1800 feet AGL
few clouds at 3000 feet AGL
broken clouds at 10000 feet AGL
Weather: TS  (thunderstorm)

METAR text: VEAT 040530Z 05003KT 4000 BR SCT018 FEW030CB BKN100 27/24 Q1006 TEMPO 3000 -TSRA
Conditions at: VEAT (AGARTALA , IN) observed 0530 UTC 04 June 2020
Temperature: 27.0°C (81°F)
Dewpoint: 24.0°C (75°F) [RH = 84%]
Pressure (altimeter): 29.70 inches Hg (1006.0 mb)
Winds: from the NE (50 degrees) at 3 MPH (3 knots; 1.5 m/s)
Visibility: 2.49 miles (4.01 km)
Ceiling: 10000 feet AGL
Clouds: scattered clouds at 1800 feet AGL
few clouds at 3000 feet AGL
broken clouds at 10000 feet AGL
Weather: BR  (mist)

METAR text: VEAT 040500Z 03005KT 4000 BR FEW010 SCT018 FEW030CB BKN100 26/24 Q1007 TEMPO 3000 -TSRA
Conditions at: VEAT (AGARTALA , IN) observed 0500 UTC 04 June 2020
Temperature: 26.0°C (79°F)
Dewpoint: 24.0°C (75°F) [RH = 89%]
Pressure (altimeter): 29.73 inches Hg (1007.0 mb)
Winds: from the NNE (30 degrees) at 6 MPH (5 knots; 2.6 m/s)
Visibility: 2.49 miles (4.01 km)
Ceiling: 10000 feet AGL
Clouds: few clouds at 1000 feet AGL
scattered clouds at 1800 feet AGL
few clouds at 3000 feet AGL
broken clouds at 10000 feet AGL
Weather: BR  (mist)

METAR text: VEAT 040430Z 00000KT 4000 BR SCT018 FEW030CB BKN100 29/28 Q1007 TEMPO 3000 -TSRA
Conditions at: VEAT (AGARTALA , IN) observed 0430 UTC 04 June 2020
Temperature: 29.0°C (84°F)
Dewpoint: 28.0°C (82°F) [RH = 94%]
Pressure (altimeter): 29.73 inches Hg (1007.0 mb)
Winds: calm
Visibility: 2.49 miles (4.01 km)
Ceiling: 10000 feet AGL
Clouds: scattered clouds at 1800 feet AGL
few clouds at 3000 feet AGL
broken clouds at 10000 feet AGL
Weather: BR  (mist)

METAR text: VEAT 040400Z 00000KT 4000 BR FEW010 SCT018 FEW030CB BKN100 29/27 Q1007 TEMPO 3000 -TSRA
Conditions at: VEAT (AGARTALA , IN) observed 0400 UTC 04 June 2020
Temperature: 29.0°C (84°F)
Dewpoint: 27.0°C (81°F) [RH = 89%]
Pressure (altimeter): 29.73 inches Hg (1007.0 mb)
Winds: calm
Visibility: 2.49 miles (4.01 km)
Ceiling: 10000 feet AGL
Clouds: few clouds at 1000 feet AGL
scattered clouds at 1800 feet AGL
few clouds at 3000 feet AGL
broken clouds at 10000 feet AGL
Weather: BR  (mist)

METAR text: VEAT 040330Z 00000KT 4000 BR FEW010 SCT018 FEW030CB BKN100 28/27 Q1007 NOSIG
Conditions at: VEAT (AGARTALA , IN) observed 0330 UTC 04 June 2020
Temperature: 28.0°C (82°F)
Dewpoint: 27.0°C (81°F) [RH = 94%]
Pressure (altimeter): 29.73 inches Hg (1007.0 mb)
Winds: calm
Visibility: 2.49 miles (4.01 km)
Ceiling: 10000 feet AGL
Clouds: few clouds at 1000 feet AGL
scattered clouds at 1800 feet AGL
few clouds at 3000 feet AGL
broken clouds at 10000 feet AGL
Weather: BR  (mist)

METAR text: VEAT 040300Z 16003KT 4000 BR FEW010 SCT018 FEW030CB BKN100 28/26 Q1007 NOSIG
Conditions at: VEAT (AGARTALA , IN) observed 0300 UTC 04 June 2020
Temperature: 28.0°C (82°F)
Dewpoint: 26.0°C (79°F) [RH = 89%]
Pressure (altimeter): 29.73 inches Hg (1007.0 mb)
Winds: from the SSE (160 degrees) at 3 MPH (3 knots; 1.5 m/s)
Visibility: 2.49 miles (4.01 km)
Ceiling: 10000 feet AGL
Clouds: few clouds at 1000 feet AGL
scattered clouds at 1800 feet AGL
few clouds at 3000 feet AGL
broken clouds at 10000 feet AGL
Weather: BR  (mist)

METAR text: VEAT 040230Z 16003KT 3500 BR FEW010 SCT018 FEW030CB BKN100 27/26 Q1007 NOSIG
Conditions at: VEAT (AGARTALA , IN) observed 0230 UTC 04 June 2020
Temperature: 27.0°C (81°F)
Dewpoint: 26.0°C (79°F) [RH = 94%]
Pressure (altimeter): 29.73 inches Hg (1007.0 mb)
Winds: from the SSE (160 degrees) at 3 MPH (3 knots; 1.5 m/s)
Visibility: 2.17 miles (3.49 km)
Ceiling: 10000 feet AGL
Clouds: few clouds at 1000 feet AGL
scattered clouds at 1800 feet AGL
few clouds at 3000 feet AGL
broken clouds at 10000 feet AGL
Weather: BR  (mist)

METAR text: VEAT 040200Z 20003KT 2500 BR FEW010 SCT018 FEW030CB BKN100 27/25 Q1006 BECMG 3000 BR
Conditions at: VEAT (AGARTALA , IN) observed 0200 UTC 04 June 2020
Temperature: 27.0°C (81°F)
Dewpoint: 25.0°C (77°F) [RH = 89%]
Pressure (altimeter): 29.70 inches Hg (1006.0 mb)
Winds: from the SSW (200 degrees) at 3 MPH (3 knots; 1.5 m/s)
Visibility: 1.55 miles (2.49 km)
Ceiling: 10000 feet AGL
Clouds: few clouds at 1000 feet AGL
scattered clouds at 1800 feet AGL
few clouds at 3000 feet AGL
broken clouds at 10000 feet AGL
Weather: BR  (mist)

METAR text: VEAT 040100Z 19003KT 2500 BR FEW010 SCT018 FEW030CB BKN100 26/25 Q1006 NOSIG
Conditions at: VEAT (AGARTALA , IN) observed 0100 UTC 04 June 2020
Temperature: 26.0°C (79°F)
Dewpoint: 25.0°C (77°F) [RH = 94%]
Pressure (altimeter): 29.70 inches Hg (1006.0 mb)
Winds: from the S (190 degrees) at 3 MPH (3 knots; 1.5 m/s)
Visibility: 1.55 miles (2.49 km)
Ceiling: 10000 feet AGL
Clouds: few clouds at 1000 feet AGL
scattered clouds at 1800 feet AGL
few clouds at 3000 feet AGL
broken clouds at 10000 feet AGL
Weather: BR  (mist)

METAR text: VEAT 040000Z 00000KT 2500 BR FEW010 SCT018 FEW030CB BKN100 26/25 Q1005 NOSIG
Conditions at: VEAT (AGARTALA , IN) observed 0000 UTC 04 June 2020
Temperature: 26.0°C (79°F)
Dewpoint: 25.0°C (77°F) [RH = 94%]
Pressure (altimeter): 29.68 inches Hg (1005.0 mb)
Winds: calm
Visibility: 1.55 miles (2.49 km)
Ceiling: 10000 feet AGL
Clouds: few clouds at 1000 feet AGL
scattered clouds at 1800 feet AGL
few clouds at 3000 feet AGL
broken clouds at 10000 feet AGL
Weather: BR  (mist)

Forecast for: VEAT (AGARTALA , IN)
Text: TAF VEAT 050200Z 0503/0512 21003KT 5000 BR HZ FEW020 SCT100
Forecast period: 0300 to 1200 UTC 05 June 2020
Forecast type: FROM: standard forecast or significant change
Winds: from the SSW (210 degrees) at 3 MPH (3 knots; 1.5 m/s)
Visibility: 3 miles (5 km)
Ceiling: at least 12,000 feet AGL
Clouds: few clouds at 2000 feet AGL
scattered clouds at 10000 feet AGL
Weather: BR HZ  (mist, haze)